sensor_id;sensor_type;location;lat;lon;timestamp;P1;durP1;ratioP1;P2;durP2;ratioP2
59659;SDS011;45534;52.690;6.268;2023-04-12T00:02:22;12.00;;;3.55;;
59659;SDS011;45534;52.690;6.268;2023-04-12T00:04:48;7.68;;;3.60;;
59659;SDS011;45534;52.690;6.268;2023-04-12T00:07:22;12.85;;;3.42;;
59659;SDS011;45534;52.690;6.268;2023-04-12T00:09:49;10.48;;;3.40;;
59659;SDS011;45534;52.690;6.268;2023-04-12T00:12:16;7.70;;;2.80;;
59659;SDS011;45534;52.690;6.268;2023-04-12T00:14:43;6.85;;;3.08;;
59659;SDS011;45534;52.690;6.268;2023-04-12T00:17:10;5.22;;;3.08;;
59659;SDS011;45534;52.690;6.268;2023-04-12T00:19:36;8.32;;;3.05;;
59659;SDS011;45534;52.690;6.268;2023-04-12T00:22:06;7.13;;;3.05;;
59659;SDS011;45534;52.690;6.268;2023-04-12T00:24:32;7.38;;;4.70;;
59659;SDS011;45534;52.690;6.268;2023-04-12T00:26:58;7.13;;;2.53;;
59659;SDS011;45534;52.690;6.268;2023-04-12T00:29:26;11.00;;;3.67;;
59659;SDS011;45534;52.690;6.268;2023-04-12T00:31:52;3.97;;;2.38;;
59659;SDS011;45534;52.690;6.268;2023-04-12T00:34:17;7.75;;;3.00;;
59659;SDS011;45534;52.690;6.268;2023-04-12T00:36:43;7.00;;;4.13;;
59659;SDS011;45534;52.690;6.268;2023-04-12T00:39:09;6.32;;;3.03;;
59659;SDS011;45534;52.690;6.268;2023-04-12T00:41:35;16.05;;;4.30;;
59659;SDS011;45534;52.690;6.268;2023-04-12T00:44:01;4.93;;;2.70;;
59659;SDS011;45534;52.690;6.268;2023-04-12T00:46:27;5.00;;;2.47;;
59659;SDS011;45534;52.690;6.268;2023-04-12T00:48:53;3.25;;;2.33;;
59659;SDS011;45534;52.690;6.268;2023-04-12T00:51:21;2.25;;;1.98;;
59659;SDS011;45534;52.690;6.268;2023-04-12T00:53:50;7.53;;;3.60;;
59659;SDS011;45534;52.690;6.268;2023-04-12T00:56:17;6.50;;;2.55;;
59659;SDS011;45534;52.690;6.268;2023-04-12T00:58:47;9.15;;;3.58;;
59659;SDS011;45534;52.690;6.268;2023-04-12T01:01:13;18.55;;;5.82;;
59659;SDS011;45534;52.690;6.268;2023-04-12T01:03:41;17.08;;;4.53;;
59659;SDS011;45534;52.690;6.268;2023-04-12T01:14:10;5.80;;;3.22;;
59659;SDS011;45534;52.690;6.268;2023-04-12T01:16:52;5.15;;;2.55;;
59659;SDS011;45534;52.690;6.268;2023-04-12T01:22:09;5.55;;;3.13;;
59659;SDS011;45534;52.690;6.268;2023-04-12T01:29:37;11.10;;;3.90;;
59659;SDS011;45534;52.690;6.268;2023-04-12T01:32:04;5.57;;;2.78;;
59659;SDS011;45534;52.690;6.268;2023-04-12T01:34:32;9.07;;;2.53;;
59659;SDS011;45534;52.690;6.268;2023-04-12T01:37:00;14.57;;;5.13;;
59659;SDS011;45534;52.690;6.268;2023-04-12T01:39:30;23.63;;;4.38;;
59659;SDS011;45534;52.690;6.268;2023-04-12T01:41:57;2.78;;;2.33;;
59659;SDS011;45534;52.690;6.268;2023-04-12T01:44:23;5.30;;;2.55;;
59659;SDS011;45534;52.690;6.268;2023-04-12T01:46:49;4.38;;;1.70;;
59659;SDS011;45534;52.690;6.268;2023-04-12T01:49:16;5.55;;;2.92;;
59659;SDS011;45534;52.690;6.268;2023-04-12T01:52:03;2.88;;;1.90;;
59659;SDS011;45534;52.690;6.268;2023-04-12T01:54:36;8.00;;;2.25;;
59659;SDS011;45534;52.690;6.268;2023-04-12T01:57:05;4.80;;;2.65;;
59659;SDS011;45534;52.690;6.268;2023-04-12T01:59:38;11.00;;;2.45;;
59659;SDS011;45534;52.690;6.268;2023-04-12T02:02:06;5.28;;;3.63;;
59659;SDS011;45534;52.690;6.268;2023-04-12T02:04:33;12.68;;;3.47;;
59659;SDS011;45534;52.690;6.268;2023-04-12T02:07:00;5.40;;;3.45;;
59659;SDS011;45534;52.690;6.268;2023-04-12T02:09:26;11.80;;;2.97;;
59659;SDS011;45534;52.690;6.268;2023-04-12T02:11:52;6.75;;;4.03;;
59659;SDS011;45534;52.690;6.268;2023-04-12T02:14:18;18.92;;;5.00;;
59659;SDS011;45534;52.690;6.268;2023-04-12T02:16:44;5.22;;;2.88;;
59659;SDS011;45534;52.690;6.268;2023-04-12T02:19:10;10.75;;;4.38;;
59659;SDS011;45534;52.690;6.268;2023-04-12T02:21:40;18.30;;;5.75;;
59659;SDS011;45534;52.690;6.268;2023-04-12T02:24:06;5.03;;;3.38;;
59659;SDS011;45534;52.690;6.268;2023-04-12T02:26:33;11.02;;;3.28;;
59659;SDS011;45534;52.690;6.268;2023-04-12T02:28:58;10.63;;;4.22;;
59659;SDS011;45534;52.690;6.268;2023-04-12T02:31:24;7.45;;;3.97;;
59659;SDS011;45534;52.690;6.268;2023-04-12T02:33:50;8.77;;;2.92;;
59659;SDS011;45534;52.690;6.268;2023-04-12T02:36:16;5.78;;;3.08;;
59659;SDS011;45534;52.690;6.268;2023-04-12T02:38:42;5.97;;;3.13;;
59659;SDS011;45534;52.690;6.268;2023-04-12T02:41:08;7.47;;;4.00;;
59659;SDS011;45534;52.690;6.268;2023-04-12T02:43:33;12.35;;;4.07;;
59659;SDS011;45534;52.690;6.268;2023-04-12T02:45:59;5.57;;;2.85;;
59659;SDS011;45534;52.690;6.268;2023-04-12T02:48:25;8.05;;;4.00;;
59659;SDS011;45534;52.690;6.268;2023-04-12T02:50:50;5.03;;;2.88;;
59659;SDS011;45534;52.690;6.268;2023-04-12T02:53:16;8.30;;;3.28;;
59659;SDS011;45534;52.690;6.268;2023-04-12T02:55:42;3.25;;;2.28;;
59659;SDS011;45534;52.690;6.268;2023-04-12T02:58:08;4.50;;;2.67;;
59659;SDS011;45534;52.690;6.268;2023-04-12T03:00:34;2.88;;;2.60;;
59659;SDS011;45534;52.690;6.268;2023-04-12T03:03:00;5.20;;;2.80;;
59659;SDS011;45534;52.690;6.268;2023-04-12T03:05:27;13.25;;;3.83;;
59659;SDS011;45534;52.690;6.268;2023-04-12T03:07:53;6.75;;;3.80;;
59659;SDS011;45534;52.690;6.268;2023-04-12T03:10:19;4.65;;;2.17;;
59659;SDS011;45534;52.690;6.268;2023-04-12T03:12:45;9.13;;;2.78;;
59659;SDS011;45534;52.690;6.268;2023-04-12T03:15:11;4.35;;;2.00;;
59659;SDS011;45534;52.690;6.268;2023-04-12T03:17:36;7.10;;;2.53;;
59659;SDS011;45534;52.690;6.268;2023-04-12T03:20:03;5.95;;;2.80;;
59659;SDS011;45534;52.690;6.268;2023-04-12T03:25:01;4.10;;;2.00;;
59659;SDS011;45534;52.690;6.268;2023-04-12T03:27:30;9.10;;;2.83;;
59659;SDS011;45534;52.690;6.268;2023-04-12T03:29:55;6.90;;;2.30;;
59659;SDS011;45534;52.690;6.268;2023-04-12T03:32:21;8.13;;;2.90;;
59659;SDS011;45534;52.690;6.268;2023-04-12T03:34:47;6.88;;;3.20;;
59659;SDS011;45534;52.690;6.268;2023-04-12T03:37:13;4.47;;;2.55;;
59659;SDS011;45534;52.690;6.268;2023-04-12T03:39:39;7.10;;;2.30;;
59659;SDS011;45534;52.690;6.268;2023-04-12T03:42:04;4.25;;;2.50;;
59659;SDS011;45534;52.690;6.268;2023-04-12T03:44:30;15.35;;;3.75;;
59659;SDS011;45534;52.690;6.268;2023-04-12T03:46:56;6.18;;;2.20;;
59659;SDS011;45534;52.690;6.268;2023-04-12T03:49:22;9.38;;;3.38;;
59659;SDS011;45534;52.690;6.268;2023-04-12T03:51:48;6.63;;;3.97;;
59659;SDS011;45534;52.690;6.268;2023-04-12T03:54:14;5.30;;;2.55;;
59659;SDS011;45534;52.690;6.268;2023-04-12T03:56:40;3.25;;;2.58;;
59659;SDS011;45534;52.690;6.268;2023-04-12T03:59:06;3.50;;;2.38;;
59659;SDS011;45534;52.690;6.268;2023-04-12T04:01:33;6.10;;;2.65;;
59659;SDS011;45534;52.690;6.268;2023-04-12T04:03:59;3.05;;;2.67;;
59659;SDS011;45534;52.690;6.268;2023-04-12T04:06:25;7.07;;;2.22;;
59659;SDS011;45534;52.690;6.268;2023-04-12T04:08:51;7.13;;;2.35;;
59659;SDS011;45534;52.690;6.268;2023-04-12T04:11:16;4.28;;;3.42;;
59659;SDS011;45534;52.690;6.268;2023-04-12T04:13:42;10.52;;;4.03;;
59659;SDS011;45534;52.690;6.268;2023-04-12T04:16:08;10.25;;;4.50;;
59659;SDS011;45534;52.690;6.268;2023-04-12T04:18:37;8.27;;;4.95;;
59659;SDS011;45534;52.690;6.268;2023-04-12T04:21:02;10.38;;;5.75;;
59659;SDS011;45534;52.690;6.268;2023-04-12T04:23:29;5.53;;;3.08;;
59659;SDS011;45534;52.690;6.268;2023-04-12T04:26:03;16.45;;;7.10;;
59659;SDS011;45534;52.690;6.268;2023-04-12T04:28:30;11.75;;;5.70;;
59659;SDS011;45534;52.690;6.268;2023-04-12T04:30:58;15.95;;;5.22;;
59659;SDS011;45534;52.690;6.268;2023-04-12T04:33:28;11.30;;;5.43;;
59659;SDS011;45534;52.690;6.268;2023-04-12T04:35:54;14.45;;;5.30;;
59659;SDS011;45534;52.690;6.268;2023-04-12T04:38:21;13.55;;;7.50;;
59659;SDS011;45534;52.690;6.268;2023-04-12T04:40:49;14.18;;;8.13;;
59659;SDS011;45534;52.690;6.268;2023-04-12T04:43:19;11.25;;;7.25;;
59659;SDS011;45534;52.690;6.268;2023-04-12T04:45:46;14.20;;;8.45;;
59659;SDS011;45534;52.690;6.268;2023-04-12T04:48:13;14.88;;;9.05;;
59659;SDS011;45534;52.690;6.268;2023-04-12T04:50:39;10.75;;;7.47;;
59659;SDS011;45534;52.690;6.268;2023-04-12T04:53:04;35.30;;;9.80;;
59659;SDS011;45534;52.690;6.268;2023-04-12T04:55:30;16.33;;;8.10;;
59659;SDS011;45534;52.690;6.268;2023-04-12T04:57:56;16.63;;;8.88;;
59659;SDS011;45534;52.690;6.268;2023-04-12T05:00:21;9.90;;;6.90;;
59659;SDS011;45534;52.690;6.268;2023-04-12T05:02:49;14.05;;;7.32;;
59659;SDS011;45534;52.690;6.268;2023-04-12T05:05:15;11.77;;;7.20;;
59659;SDS011;45534;52.690;6.268;2023-04-12T05:07:41;12.00;;;6.70;;
59659;SDS011;45534;52.690;6.268;2023-04-12T05:10:08;18.30;;;8.30;;
59659;SDS011;45534;52.690;6.268;2023-04-12T05:12:35;19.02;;;5.07;;
59659;SDS011;45534;52.690;6.268;2023-04-12T05:15:01;11.60;;;5.70;;
59659;SDS011;45534;52.690;6.268;2023-04-12T05:17:27;13.68;;;6.00;;
59659;SDS011;45534;52.690;6.268;2023-04-12T05:19:53;13.68;;;6.93;;
59659;SDS011;45534;52.690;6.268;2023-04-12T05:22:19;9.82;;;5.07;;
59659;SDS011;45534;52.690;6.268;2023-04-12T05:24:46;9.07;;;4.75;;
59659;SDS011;45534;52.690;6.268;2023-04-12T05:27:15;17.58;;;5.95;;
59659;SDS011;45534;52.690;6.268;2023-04-12T05:29:41;9.00;;;5.90;;
59659;SDS011;45534;52.690;6.268;2023-04-12T05:32:07;10.65;;;4.43;;
59659;SDS011;45534;52.690;6.268;2023-04-12T05:34:33;11.73;;;4.50;;
59659;SDS011;45534;52.690;6.268;2023-04-12T05:36:59;12.27;;;4.38;;
59659;SDS011;45534;52.690;6.268;2023-04-12T05:39:25;8.15;;;4.15;;
59659;SDS011;45534;52.690;6.268;2023-04-12T05:41:51;32.92;;;4.55;;
59659;SDS011;45534;52.690;6.268;2023-04-12T05:44:17;7.20;;;3.50;;
59659;SDS011;45534;52.690;6.268;2023-04-12T05:46:43;9.52;;;5.43;;
59659;SDS011;45534;52.690;6.268;2023-04-12T05:49:09;10.77;;;3.97;;
59659;SDS011;45534;52.690;6.268;2023-04-12T05:51:34;5.45;;;2.83;;
59659;SDS011;45534;52.690;6.268;2023-04-12T05:54:00;11.50;;;5.15;;
59659;SDS011;45534;52.690;6.268;2023-04-12T05:56:30;7.97;;;4.93;;
59659;SDS011;45534;52.690;6.268;2023-04-12T05:58:56;7.68;;;4.07;;
59659;SDS011;45534;52.690;6.268;2023-04-12T06:01:22;7.15;;;4.40;;
59659;SDS011;45534;52.690;6.268;2023-04-12T06:03:58;6.38;;;4.07;;
59659;SDS011;45534;52.690;6.268;2023-04-12T06:06:26;9.05;;;5.50;;
59659;SDS011;45534;52.690;6.268;2023-04-12T06:08:54;6.80;;;4.78;;
59659;SDS011;45534;52.690;6.268;2023-04-12T06:11:22;7.10;;;4.90;;
59659;SDS011;45534;52.690;6.268;2023-04-12T06:13:48;15.32;;;5.55;;
59659;SDS011;45534;52.690;6.268;2023-04-12T06:16:14;6.25;;;4.85;;
59659;SDS011;45534;52.690;6.268;2023-04-12T06:18:40;9.98;;;4.30;;
59659;SDS011;45534;52.690;6.268;2023-04-12T06:21:06;8.75;;;5.60;;
59659;SDS011;45534;52.690;6.268;2023-04-12T06:23:31;8.90;;;4.25;;
59659;SDS011;45534;52.690;6.268;2023-04-12T06:25:57;7.78;;;4.60;;
59659;SDS011;45534;52.690;6.268;2023-04-12T06:28:23;6.47;;;4.15;;
59659;SDS011;45534;52.690;6.268;2023-04-12T06:30:48;11.07;;;4.13;;
59659;SDS011;45534;52.690;6.268;2023-04-12T06:33:14;6.97;;;3.80;;
59659;SDS011;45534;52.690;6.268;2023-04-12T06:35:40;8.00;;;4.85;;
59659;SDS011;45534;52.690;6.268;2023-04-12T06:38:05;14.18;;;6.40;;
59659;SDS011;45534;52.690;6.268;2023-04-12T06:40:31;7.53;;;5.47;;
59659;SDS011;45534;52.690;6.268;2023-04-12T06:42:57;10.88;;;6.10;;
59659;SDS011;45534;52.690;6.268;2023-04-12T06:45:23;8.98;;;4.18;;
59659;SDS011;45534;52.690;6.268;2023-04-12T06:47:48;9.82;;;6.32;;
59659;SDS011;45534;52.690;6.268;2023-04-12T06:50:14;8.38;;;6.93;;
59659;SDS011;45534;52.690;6.268;2023-04-12T06:52:40;8.20;;;5.00;;
59659;SDS011;45534;52.690;6.268;2023-04-12T06:55:05;11.02;;;6.00;;
59659;SDS011;45534;52.690;6.268;2023-04-12T06:57:31;8.60;;;5.80;;
59659;SDS011;45534;52.690;6.268;2023-04-12T06:59:57;15.80;;;6.82;;
59659;SDS011;45534;52.690;6.268;2023-04-12T07:02:23;12.07;;;6.38;;
59659;SDS011;45534;52.690;6.268;2023-04-12T07:04:52;8.93;;;6.22;;
59659;SDS011;45534;52.690;6.268;2023-04-12T07:07:18;7.75;;;5.47;;
59659;SDS011;45534;52.690;6.268;2023-04-12T07:09:45;6.97;;;4.72;;
59659;SDS011;45534;52.690;6.268;2023-04-12T07:12:11;9.32;;;4.97;;
59659;SDS011;45534;52.690;6.268;2023-04-12T07:14:38;11.88;;;6.82;;
59659;SDS011;45534;52.690;6.268;2023-04-12T07:17:04;10.68;;;6.88;;
59659;SDS011;45534;52.690;6.268;2023-04-12T07:19:30;10.80;;;7.50;;
59659;SDS011;45534;52.690;6.268;2023-04-12T07:21:56;9.25;;;5.78;;
59659;SDS011;45534;52.690;6.268;2023-04-12T07:24:22;10.35;;;7.07;;
59659;SDS011;45534;52.690;6.268;2023-04-12T07:26:48;10.57;;;6.20;;
59659;SDS011;45534;52.690;6.268;2023-04-12T07:29:13;12.48;;;6.40;;
59659;SDS011;45534;52.690;6.268;2023-04-12T07:31:41;8.40;;;7.40;;
59659;SDS011;45534;52.690;6.268;2023-04-12T07:34:07;13.07;;;7.63;;
59659;SDS011;45534;52.690;6.268;2023-04-12T07:36:32;9.35;;;7.78;;
59659;SDS011;45534;52.690;6.268;2023-04-12T07:38:58;11.40;;;6.63;;
59659;SDS011;45534;52.690;6.268;2023-04-12T07:41:24;8.55;;;5.53;;
59659;SDS011;45534;52.690;6.268;2023-04-12T07:43:49;10.57;;;6.05;;
59659;SDS011;45534;52.690;6.268;2023-04-12T07:46:15;9.20;;;6.95;;
59659;SDS011;45534;52.690;6.268;2023-04-12T07:48:42;10.55;;;7.53;;
59659;SDS011;45534;52.690;6.268;2023-04-12T07:51:08;17.02;;;8.55;;
59659;SDS011;45534;52.690;6.268;2023-04-12T07:53:33;15.38;;;8.73;;
59659;SDS011;45534;52.690;6.268;2023-04-12T07:55:59;13.70;;;6.82;;
59659;SDS011;45534;52.690;6.268;2023-04-12T07:58:25;9.85;;;6.43;;
59659;SDS011;45534;52.690;6.268;2023-04-12T08:00:52;10.77;;;8.77;;
59659;SDS011;45534;52.690;6.268;2023-04-12T08:03:17;9.18;;;8.05;;
59659;SDS011;45534;52.690;6.268;2023-04-12T08:05:43;10.32;;;8.18;;
59659;SDS011;45534;52.690;6.268;2023-04-12T08:08:10;9.15;;;6.50;;
59659;SDS011;45534;52.690;6.268;2023-04-12T08:10:36;7.43;;;6.18;;
59659;SDS011;45534;52.690;6.268;2023-04-12T08:13:03;10.88;;;6.63;;
59659;SDS011;45534;52.690;6.268;2023-04-12T08:15:29;10.00;;;5.68;;
59659;SDS011;45534;52.690;6.268;2023-04-12T08:17:55;9.38;;;7.25;;
59659;SDS011;45534;52.690;6.268;2023-04-12T08:20:21;8.35;;;5.95;;
59659;SDS011;45534;52.690;6.268;2023-04-12T08:22:47;9.68;;;6.05;;
59659;SDS011;45534;52.690;6.268;2023-04-12T08:25:14;7.22;;;5.25;;
59659;SDS011;45534;52.690;6.268;2023-04-12T08:27:43;8.93;;;5.95;;
59659;SDS011;45534;52.690;6.268;2023-04-12T08:30:10;8.50;;;6.72;;
59659;SDS011;45534;52.690;6.268;2023-04-12T08:32:36;5.85;;;4.13;;
59659;SDS011;45534;52.690;6.268;2023-04-12T08:35:02;11.40;;;5.00;;
59659;SDS011;45534;52.690;6.268;2023-04-12T08:37:29;5.28;;;4.40;;
59659;SDS011;45534;52.690;6.268;2023-04-12T08:39:54;4.18;;;3.25;;
59659;SDS011;45534;52.690;6.268;2023-04-12T08:42:20;4.38;;;3.78;;
59659;SDS011;45534;52.690;6.268;2023-04-12T08:44:46;5.68;;;4.45;;
59659;SDS011;45534;52.690;6.268;2023-04-12T08:47:15;5.35;;;4.63;;
59659;SDS011;45534;52.690;6.268;2023-04-12T08:49:40;6.75;;;3.80;;
59659;SDS011;45534;52.690;6.268;2023-04-12T08:52:07;5.93;;;3.55;;
59659;SDS011;45534;52.690;6.268;2023-04-12T08:54:34;7.97;;;4.50;;
59659;SDS011;45534;52.690;6.268;2023-04-12T08:57:04;11.57;;;6.03;;
59659;SDS011;45534;52.690;6.268;2023-04-12T08:59:31;8.85;;;5.25;;
59659;SDS011;45534;52.690;6.268;2023-04-12T09:02:00;10.95;;;4.55;;
59659;SDS011;45534;52.690;6.268;2023-04-12T09:04:26;4.68;;;3.83;;
59659;SDS011;45534;52.690;6.268;2023-04-12T09:06:52;6.47;;;4.25;;
59659;SDS011;45534;52.690;6.268;2023-04-12T09:09:17;6.53;;;4.53;;
59659;SDS011;45534;52.690;6.268;2023-04-12T09:11:43;5.93;;;4.32;;
59659;SDS011;45534;52.690;6.268;2023-04-12T09:14:23;7.95;;;5.28;;
59659;SDS011;45534;52.690;6.268;2023-04-12T09:16:50;5.53;;;3.85;;
59659;SDS011;45534;52.690;6.268;2023-04-12T09:19:22;7.43;;;4.00;;
59659;SDS011;45534;52.690;6.268;2023-04-12T09:21:58;8.35;;;4.55;;
59659;SDS011;45534;52.690;6.268;2023-04-12T09:24:24;5.32;;;4.25;;
59659;SDS011;45534;52.690;6.268;2023-04-12T09:27:00;4.75;;;3.38;;
59659;SDS011;45534;52.690;6.268;2023-04-12T09:29:26;4.78;;;3.20;;
59659;SDS011;45534;52.690;6.268;2023-04-12T09:31:58;4.78;;;3.83;;
59659;SDS011;45534;52.690;6.268;2023-04-12T09:34:26;9.93;;;4.53;;
59659;SDS011;45534;52.690;6.268;2023-04-12T09:36:51;8.90;;;5.07;;
59659;SDS011;45534;52.690;6.268;2023-04-12T09:39:18;10.85;;;4.90;;
59659;SDS011;45534;52.690;6.268;2023-04-12T09:41:44;7.50;;;4.38;;
59659;SDS011;45534;52.690;6.268;2023-04-12T09:44:09;8.45;;;4.28;;
59659;SDS011;45534;52.690;6.268;2023-04-12T09:46:53;8.18;;;4.93;;
59659;SDS011;45534;52.690;6.268;2023-04-12T09:49:31;4.93;;;4.07;;
59659;SDS011;45534;52.690;6.268;2023-04-12T09:52:04;12.55;;;5.03;;
59659;SDS011;45534;52.690;6.268;2023-04-12T09:54:32;5.95;;;3.55;;
59659;SDS011;45534;52.690;6.268;2023-04-12T09:57:11;7.40;;;4.00;;
59659;SDS011;45534;52.690;6.268;2023-04-12T09:59:38;3.22;;;2.92;;
59659;SDS011;45534;52.690;6.268;2023-04-12T10:02:06;17.85;;;6.28;;
59659;SDS011;45534;52.690;6.268;2023-04-12T10:04:38;6.75;;;3.58;;
59659;SDS011;45534;52.690;6.268;2023-04-12T10:07:05;6.07;;;3.03;;
59659;SDS011;45534;52.690;6.268;2023-04-12T10:09:31;11.30;;;5.03;;
59659;SDS011;45534;52.690;6.268;2023-04-12T10:11:59;7.43;;;3.50;;
59659;SDS011;45534;52.690;6.268;2023-04-12T10:14:27;10.02;;;3.35;;
59659;SDS011;45534;52.690;6.268;2023-04-12T10:16:57;8.77;;;3.97;;
59659;SDS011;45534;52.690;6.268;2023-04-12T10:19:25;11.95;;;5.28;;
59659;SDS011;45534;52.690;6.268;2023-04-12T10:21:53;11.48;;;5.07;;
59659;SDS011;45534;52.690;6.268;2023-04-12T10:24:21;13.02;;;3.90;;
59659;SDS011;45534;52.690;6.268;2023-04-12T10:26:51;6.28;;;3.38;;
59659;SDS011;45534;52.690;6.268;2023-04-12T10:29:29;10.63;;;4.88;;
59659;SDS011;45534;52.690;6.268;2023-04-12T10:34:50;11.55;;;3.92;;
59659;SDS011;45534;52.690;6.268;2023-04-12T10:37:20;4.45;;;3.38;;
59659;SDS011;45534;52.690;6.268;2023-04-12T10:39:52;3.90;;;1.67;;
59659;SDS011;45534;52.690;6.268;2023-04-12T10:42:24;13.60;;;3.47;;
59659;SDS011;45534;52.690;6.268;2023-04-12T10:55:40;19.35;;;3.72;;
59659;SDS011;45534;52.690;6.268;2023-04-12T10:58:07;10.88;;;5.43;;
59659;SDS011;45534;52.690;6.268;2023-04-12T11:03:21;5.53;;;1.98;;
59659;SDS011;45534;52.690;6.268;2023-04-12T11:05:56;8.20;;;3.80;;
59659;SDS011;45534;52.690;6.268;2023-04-12T11:08:25;7.25;;;2.30;;
59659;SDS011;45534;52.690;6.268;2023-04-12T11:10:57;2.15;;;1.95;;
59659;SDS011;45534;52.690;6.268;2023-04-12T11:13:25;10.70;;;3.22;;
59659;SDS011;45534;52.690;6.268;2023-04-12T11:15:53;2.58;;;2.08;;
59659;SDS011;45534;52.690;6.268;2023-04-12T11:18:25;9.25;;;3.08;;
59659;SDS011;45534;52.690;6.268;2023-04-12T11:20:51;2.05;;;1.92;;
59659;SDS011;45534;52.690;6.268;2023-04-12T11:23:18;5.15;;;2.47;;
59659;SDS011;45534;52.690;6.268;2023-04-12T11:25:48;6.82;;;4.35;;
59659;SDS011;45534;52.690;6.268;2023-04-12T11:28:16;9.93;;;2.60;;
59659;SDS011;45534;52.690;6.268;2023-04-12T11:30:54;12.65;;;5.45;;
59659;SDS011;45534;52.690;6.268;2023-04-12T11:36:15;19.98;;;5.53;;
59659;SDS011;45534;52.690;6.268;2023-04-12T11:38:41;6.13;;;3.63;;
59659;SDS011;45534;52.690;6.268;2023-04-12T11:41:10;7.13;;;3.20;;
59659;SDS011;45534;52.690;6.268;2023-04-12T11:43:38;5.90;;;3.28;;
59659;SDS011;45534;52.690;6.268;2023-04-12T11:46:04;11.13;;;4.45;;
59659;SDS011;45534;52.690;6.268;2023-04-12T11:48:30;20.13;;;4.65;;
59659;SDS011;45534;52.690;6.268;2023-04-12T11:50:56;18.38;;;5.40;;
59659;SDS011;45534;52.690;6.268;2023-04-12T11:53:28;6.03;;;2.63;;
59659;SDS011;45534;52.690;6.268;2023-04-12T11:55:55;9.80;;;3.13;;
59659;SDS011;45534;52.690;6.268;2023-04-12T11:58:25;6.63;;;2.40;;
59659;SDS011;45534;52.690;6.268;2023-04-12T12:00:52;4.45;;;3.03;;
59659;SDS011;45534;52.690;6.268;2023-04-12T12:03:20;9.63;;;4.80;;
59659;SDS011;45534;52.690;6.268;2023-04-12T12:05:46;12.82;;;3.92;;
59659;SDS011;45534;52.690;6.268;2023-04-12T12:08:13;5.93;;;3.08;;
59659;SDS011;45534;52.690;6.268;2023-04-12T12:10:39;5.55;;;3.72;;
59659;SDS011;45534;52.690;6.268;2023-04-12T12:13:08;3.58;;;2.88;;
59659;SDS011;45534;52.690;6.268;2023-04-12T12:15:35;15.15;;;3.30;;
59659;SDS011;45534;52.690;6.268;2023-04-12T12:18:01;6.03;;;2.42;;
59659;SDS011;45534;52.690;6.268;2023-04-12T12:20:27;6.32;;;3.00;;
59659;SDS011;45534;52.690;6.268;2023-04-12T12:22:53;10.40;;;2.00;;
59659;SDS011;45534;52.690;6.268;2023-04-12T12:25:19;21.15;;;2.22;;
59659;SDS011;45534;52.690;6.268;2023-04-12T12:27:45;13.00;;;4.65;;
59659;SDS011;45534;52.690;6.268;2023-04-12T12:30:16;4.07;;;2.72;;
59659;SDS011;45534;52.690;6.268;2023-04-12T12:32:43;10.73;;;3.63;;
59659;SDS011;45534;52.690;6.268;2023-04-12T12:35:09;7.32;;;2.00;;
59659;SDS011;45534;52.690;6.268;2023-04-12T12:37:51;12.82;;;2.50;;
59659;SDS011;45534;52.690;6.268;2023-04-12T12:40:29;8.68;;;2.30;;
59659;SDS011;45534;52.690;6.268;2023-04-12T12:42:56;6.95;;;2.40;;
59659;SDS011;45534;52.690;6.268;2023-04-12T12:45:24;6.05;;;2.67;;
59659;SDS011;45534;52.690;6.268;2023-04-12T12:47:51;18.90;;;5.50;;
59659;SDS011;45534;52.690;6.268;2023-04-12T12:50:26;5.00;;;3.47;;
59659;SDS011;45534;52.690;6.268;2023-04-12T12:52:54;3.28;;;1.90;;
59659;SDS011;45534;52.690;6.268;2023-04-12T12:55:20;5.53;;;1.40;;
59659;SDS011;45534;52.690;6.268;2023-04-12T12:57:48;4.97;;;2.25;;
59659;SDS011;45534;52.690;6.268;2023-04-12T13:00:15;11.82;;;4.00;;
59659;SDS011;45534;52.690;6.268;2023-04-12T13:02:43;7.05;;;2.03;;
59659;SDS011;45534;52.690;6.268;2023-04-12T13:05:09;6.88;;;1.67;;
59659;SDS011;45534;52.690;6.268;2023-04-12T13:07:35;2.05;;;1.45;;
59659;SDS011;45534;52.690;6.268;2023-04-12T13:10:01;3.78;;;2.10;;
59659;SDS011;45534;52.690;6.268;2023-04-12T13:12:28;16.30;;;4.20;;
59659;SDS011;45534;52.690;6.268;2023-04-12T13:14:54;4.43;;;1.67;;
59659;SDS011;45534;52.690;6.268;2023-04-12T13:17:20;3.95;;;1.85;;
59659;SDS011;45534;52.690;6.268;2023-04-12T13:19:46;6.10;;;2.55;;
59659;SDS011;45534;52.690;6.268;2023-04-12T13:22:12;4.40;;;2.10;;
59659;SDS011;45534;52.690;6.268;2023-04-12T13:24:39;7.60;;;2.60;;
59659;SDS011;45534;52.690;6.268;2023-04-12T13:27:05;7.70;;;2.00;;
59659;SDS011;45534;52.690;6.268;2023-04-12T13:29:32;19.50;;;3.65;;
59659;SDS011;45534;52.690;6.268;2023-04-12T13:31:58;10.23;;;3.22;;
59659;SDS011;45534;52.690;6.268;2023-04-12T13:34:23;10.65;;;2.85;;
59659;SDS011;45534;52.690;6.268;2023-04-12T13:36:49;8.10;;;2.40;;
59659;SDS011;45534;52.690;6.268;2023-04-12T13:39:15;5.72;;;2.20;;
59659;SDS011;45534;52.690;6.268;2023-04-12T13:41:41;4.10;;;2.22;;
59659;SDS011;45534;52.690;6.268;2023-04-12T13:44:07;11.45;;;2.80;;
59659;SDS011;45534;52.690;6.268;2023-04-12T13:46:33;5.80;;;2.45;;
59659;SDS011;45534;52.690;6.268;2023-04-12T13:48:59;4.22;;;1.95;;
59659;SDS011;45534;52.690;6.268;2023-04-12T13:51:25;7.22;;;1.83;;
59659;SDS011;45534;52.690;6.268;2023-04-12T13:53:52;8.48;;;2.28;;
59659;SDS011;45534;52.690;6.268;2023-04-12T13:56:21;6.82;;;2.53;;
59659;SDS011;45534;52.690;6.268;2023-04-12T13:58:47;5.93;;;2.75;;
59659;SDS011;45534;52.690;6.268;2023-04-12T14:01:12;9.50;;;2.92;;
59659;SDS011;45534;52.690;6.268;2023-04-12T14:03:38;7.80;;;3.65;;
59659;SDS011;45534;52.690;6.268;2023-04-12T14:06:05;10.38;;;2.67;;
59659;SDS011;45534;52.690;6.268;2023-04-12T14:08:31;4.63;;;1.67;;
59659;SDS011;45534;52.690;6.268;2023-04-12T14:10:57;3.50;;;1.85;;
59659;SDS011;45534;52.690;6.268;2023-04-12T14:13:24;2.95;;;2.50;;
59659;SDS011;45534;52.690;6.268;2023-04-12T14:15:50;15.80;;;4.47;;
59659;SDS011;45534;52.690;6.268;2023-04-12T14:18:17;4.00;;;1.98;;
59659;SDS011;45534;52.690;6.268;2023-04-12T14:20:43;14.27;;;4.40;;
59659;SDS011;45534;52.690;6.268;2023-04-12T14:23:13;4.35;;;1.80;;
59659;SDS011;45534;52.690;6.268;2023-04-12T14:25:39;9.80;;;5.10;;
59659;SDS011;45534;52.690;6.268;2023-04-12T14:28:05;4.07;;;2.42;;
59659;SDS011;45534;52.690;6.268;2023-04-12T14:30:31;2.13;;;1.92;;
59659;SDS011;45534;52.690;6.268;2023-04-12T14:32:57;2.17;;;1.73;;
59659;SDS011;45534;52.690;6.268;2023-04-12T14:35:23;11.60;;;4.00;;
59659;SDS011;45534;52.690;6.268;2023-04-12T14:37:48;8.65;;;2.85;;
59659;SDS011;45534;52.690;6.268;2023-04-12T14:40:14;5.78;;;1.77;;
59659;SDS011;45534;52.690;6.268;2023-04-12T14:42:41;8.93;;;2.55;;
59659;SDS011;45534;52.690;6.268;2023-04-12T14:45:07;12.35;;;2.53;;
59659;SDS011;45534;52.690;6.268;2023-04-12T14:47:33;12.20;;;2.58;;
59659;SDS011;45534;52.690;6.268;2023-04-12T14:50:00;15.00;;;6.18;;
59659;SDS011;45534;52.690;6.268;2023-04-12T14:52:26;9.05;;;3.20;;
59659;SDS011;45534;52.690;6.268;2023-04-12T14:54:52;3.70;;;2.05;;
59659;SDS011;45534;52.690;6.268;2023-04-12T14:57:18;9.13;;;2.85;;
59659;SDS011;45534;52.690;6.268;2023-04-12T14:59:44;6.32;;;2.25;;
59659;SDS011;45534;52.690;6.268;2023-04-12T15:02:09;9.27;;;1.85;;
59659;SDS011;45534;52.690;6.268;2023-04-12T15:04:35;5.97;;;2.42;;
59659;SDS011;45534;52.690;6.268;2023-04-12T15:07:01;6.50;;;2.85;;
59659;SDS011;45534;52.690;6.268;2023-04-12T15:09:26;5.35;;;2.20;;
59659;SDS011;45534;52.690;6.268;2023-04-12T15:11:52;5.65;;;1.60;;
59659;SDS011;45534;52.690;6.268;2023-04-12T15:14:25;12.73;;;3.10;;
59659;SDS011;45534;52.690;6.268;2023-04-12T15:16:52;8.05;;;2.83;;
59659;SDS011;45534;52.690;6.268;2023-04-12T15:19:18;2.10;;;2.00;;
59659;SDS011;45534;52.690;6.268;2023-04-12T15:21:46;5.47;;;1.77;;